<?xml version="1.0" encoding="UTF-8" standalone="no" ?>
<gpx xmlns="http://www.topografix.com/GPX/1/1" xmlns:xsi="http://www.w3.org/2001/XMLSchema-instance" xsi:schemaLocation="http://www.topografix.com/GPX/1/1 http://www.topografix.com/GPX/1/1/gpx.xsd" version="1.1" creator="VisuGPX - https://www.visugpx.com">
  <metadata>
    <name>Balade</name>
    <desc><![CDATA[essai de transfer de tracé en itinéraire]]></desc>
  </metadata>
  <trk>
    <name><![CDATA[Tracé actuel: 31 MARS 2013 06:16]]></name>
    <trkseg>
      <trkpt lat="49.07494" lon="7.13544">
        <ele>221.24</ele>
        <time>2013-03-31T04:16:38Z</time>
      </trkpt>
      <trkpt lat="49.07526" lon="7.13542">
        <ele>218.84</ele>
        <time>2013-03-31T04:17:06Z</time>
      </trkpt>
      <trkpt lat="49.07546" lon="7.13548">
        <ele>217.4</ele>
        <time>2013-03-31T04:17:23Z</time>
      </trkpt>
      <trkpt lat="49.07565" lon="7.13561">
        <ele>214.99</ele>
        <time>2013-03-31T04:17:50Z</time>
      </trkpt>
      <trkpt lat="49.07585" lon="7.1357">
        <ele>214.51</ele>
        <time>2013-03-31T04:18:17Z</time>
      </trkpt>
      <trkpt lat="49.07607" lon="7.13584">
        <ele>214.51</ele>
        <time>2013-03-31T04:18:39Z</time>
      </trkpt>
      <trkpt lat="49.07617" lon="7.13594">
        <ele>214.03</ele>
        <time>2013-03-31T04:19:04Z</time>
      </trkpt>
      <trkpt lat="49.07637" lon="7.13605">
        <ele>213.55</ele>
        <time>2013-03-31T04:19:31Z</time>
      </trkpt>
      <trkpt lat="49.07657" lon="7.13614">
        <ele>212.59</ele>
        <time>2013-03-31T04:19:49Z</time>
      </trkpt>
      <trkpt lat="49.07661" lon="7.13578">
        <ele>214.51</ele>
        <time>2013-03-31T04:20:11Z</time>
      </trkpt>
      <trkpt lat="49.07659" lon="7.13562">
        <ele>214.99</ele>
        <time>2013-03-31T04:20:35Z</time>
      </trkpt>
      <trkpt lat="49.07659" lon="7.13557">
        <ele>215.47</ele>
        <time>2013-03-31T04:20:55Z</time>
      </trkpt>
      <trkpt lat="49.07659" lon="7.13553">
        <ele>215.95</ele>
        <time>2013-03-31T04:20:57Z</time>
      </trkpt>
      <trkpt lat="49.07659" lon="7.13543">
        <ele>216.43</ele>
        <time>2013-03-31T04:21:02Z</time>
      </trkpt>
      <trkpt lat="49.07639" lon="7.13527">
        <ele>219.32</ele>
        <time>2013-03-31T04:21:24Z</time>
      </trkpt>
      <trkpt lat="49.07622" lon="7.13528">
        <ele>220.76</ele>
        <time>2013-03-31T04:21:42Z</time>
      </trkpt>
      <trkpt lat="49.07594" lon="7.13532">
        <ele>222.2</ele>
        <time>2013-03-31T04:22:03Z</time>
      </trkpt>
      <trkpt lat="49.07576" lon="7.13515">
        <ele>222.68</ele>
        <time>2013-03-31T04:22:20Z</time>
      </trkpt>
      <trkpt lat="49.07575" lon="7.13472">
        <ele>224.12</ele>
        <time>2013-03-31T04:22:42Z</time>
      </trkpt>
      <trkpt lat="49.07596" lon="7.13457">
        <ele>225.09</ele>
        <time>2013-03-31T04:23:06Z</time>
      </trkpt>
      <trkpt lat="49.07616" lon="7.13451">
        <ele>226.53</ele>
        <time>2013-03-31T04:23:28Z</time>
      </trkpt>
      <trkpt lat="49.07634" lon="7.13446">
        <ele>227.49</ele>
        <time>2013-03-31T04:23:50Z</time>
      </trkpt>
      <trkpt lat="49.07644" lon="7.13411">
        <ele>228.45</ele>
        <time>2013-03-31T04:24:14Z</time>
      </trkpt>
      <trkpt lat="49.07644" lon="7.13409">
        <ele>228.93</ele>
        <time>2013-03-31T04:24:15Z</time>
      </trkpt>
      <trkpt lat="49.07644" lon="7.13366">
        <ele>231.81</ele>
        <time>2013-03-31T04:24:40Z</time>
      </trkpt>
      <trkpt lat="49.07641" lon="7.1332">
        <ele>234.22</ele>
        <time>2013-03-31T04:25:05Z</time>
      </trkpt>
      <trkpt lat="49.07642" lon="7.1327">
        <ele>236.14</ele>
        <time>2013-03-31T04:25:32Z</time>
      </trkpt>
      <trkpt lat="49.07646" lon="7.13222">
        <ele>238.54</ele>
        <time>2013-03-31T04:25:59Z</time>
      </trkpt>
      <trkpt lat="49.07667" lon="7.13213">
        <ele>239.02</ele>
        <time>2013-03-31T04:26:18Z</time>
      </trkpt>
      <trkpt lat="49.07698" lon="7.13209">
        <ele>239.99</ele>
        <time>2013-03-31T04:26:42Z</time>
      </trkpt>
      <trkpt lat="49.07732" lon="7.13203">
        <ele>240.47</ele>
        <time>2013-03-31T04:27:12Z</time>
      </trkpt>
      <trkpt lat="49.07746" lon="7.13196">
        <ele>240.47</ele>
        <time>2013-03-31T04:27:37Z</time>
      </trkpt>
      <trkpt lat="49.07774" lon="7.13179">
        <ele>240.95</ele>
        <time>2013-03-31T04:28:00Z</time>
      </trkpt>
      <trkpt lat="49.07806" lon="7.13166">
        <ele>241.43</ele>
        <time>2013-03-31T04:28:25Z</time>
      </trkpt>
      <trkpt lat="49.07846" lon="7.13152">
        <ele>239.99</ele>
        <time>2013-03-31T04:28:57Z</time>
      </trkpt>
      <trkpt lat="49.07876" lon="7.1318">
        <ele>238.06</ele>
        <time>2013-03-31T04:29:27Z</time>
      </trkpt>
      <trkpt lat="49.07879" lon="7.13183">
        <ele>238.06</ele>
        <time>2013-03-31T04:29:41Z</time>
      </trkpt>
      <trkpt lat="49.07895" lon="7.13185">
        <ele>239.02</ele>
        <time>2013-03-31T04:30:02Z</time>
      </trkpt>
      <trkpt lat="49.07905" lon="7.13182">
        <ele>239.02</ele>
        <time>2013-03-31T04:30:10Z</time>
      </trkpt>
      <trkpt lat="49.07939" lon="7.13153">
        <ele>240.95</ele>
        <time>2013-03-31T04:30:41Z</time>
      </trkpt>
      <trkpt lat="49.07974" lon="7.13124">
        <ele>242.87</ele>
        <time>2013-03-31T04:31:15Z</time>
      </trkpt>
      <trkpt lat="49.08007" lon="7.131">
        <ele>244.31</ele>
        <time>2013-03-31T04:31:45Z</time>
      </trkpt>
      <trkpt lat="49.0803" lon="7.13082">
        <ele>244.31</ele>
        <time>2013-03-31T04:32:11Z</time>
      </trkpt>
      <trkpt lat="49.08034" lon="7.13078">
        <ele>244.31</ele>
        <time>2013-03-31T04:32:29Z</time>
      </trkpt>
      <trkpt lat="49.08036" lon="7.13078">
        <ele>243.83</ele>
        <time>2013-03-31T04:32:31Z</time>
      </trkpt>
      <trkpt lat="49.0807" lon="7.13066">
        <ele>243.83</ele>
        <time>2013-03-31T04:32:58Z</time>
      </trkpt>
      <trkpt lat="49.08084" lon="7.13071">
        <ele>241.43</ele>
        <time>2013-03-31T04:33:09Z</time>
      </trkpt>
      <trkpt lat="49.08103" lon="7.13054">
        <ele>241.43</ele>
        <time>2013-03-31T04:33:33Z</time>
      </trkpt>
      <trkpt lat="49.08125" lon="7.13024">
        <ele>240.47</ele>
        <time>2013-03-31T04:33:58Z</time>
      </trkpt>
      <trkpt lat="49.08131" lon="7.13022">
        <ele>240.47</ele>
        <time>2013-03-31T04:34:03Z</time>
      </trkpt>
      <trkpt lat="49.08134" lon="7.13015">
        <ele>240.47</ele>
        <time>2013-03-31T04:34:07Z</time>
      </trkpt>
      <trkpt lat="49.08155" lon="7.12975">
        <ele>241.43</ele>
        <time>2013-03-31T04:34:33Z</time>
      </trkpt>
      <trkpt lat="49.08173" lon="7.12925">
        <ele>241.91</ele>
        <time>2013-03-31T04:35:02Z</time>
      </trkpt>
      <trkpt lat="49.0819" lon="7.12871">
        <ele>243.35</ele>
        <time>2013-03-31T04:35:31Z</time>
      </trkpt>
      <trkpt lat="49.08202" lon="7.12826">
        <ele>244.79</ele>
        <time>2013-03-31T04:35:55Z</time>
      </trkpt>
      <trkpt lat="49.08228" lon="7.12811">
        <ele>243.35</ele>
        <time>2013-03-31T04:36:19Z</time>
      </trkpt>
      <trkpt lat="49.08273" lon="7.12829">
        <ele>241.43</ele>
        <time>2013-03-31T04:36:52Z</time>
      </trkpt>
      <trkpt lat="49.0831" lon="7.12846">
        <ele>240.47</ele>
        <time>2013-03-31T04:37:21Z</time>
      </trkpt>
      <trkpt lat="49.08353" lon="7.12862">
        <ele>239.51</ele>
        <time>2013-03-31T04:37:52Z</time>
      </trkpt>
      <trkpt lat="49.08387" lon="7.12883">
        <ele>238.06</ele>
        <time>2013-03-31T04:38:18Z</time>
      </trkpt>
      <trkpt lat="49.08418" lon="7.12903">
        <ele>236.14</ele>
        <time>2013-03-31T04:38:44Z</time>
      </trkpt>
      <trkpt lat="49.08437" lon="7.12913">
        <ele>235.18</ele>
        <time>2013-03-31T04:39:00Z</time>
      </trkpt>
      <trkpt lat="49.08444" lon="7.12924">
        <ele>235.18</ele>
        <time>2013-03-31T04:39:08Z</time>
      </trkpt>
      <trkpt lat="49.08484" lon="7.12946">
        <ele>231.81</ele>
        <time>2013-03-31T04:39:39Z</time>
      </trkpt>
      <trkpt lat="49.08499" lon="7.12951">
        <ele>230.85</ele>
        <time>2013-03-31T04:39:50Z</time>
      </trkpt>
      <trkpt lat="49.08518" lon="7.12983">
        <ele>228.93</ele>
        <time>2013-03-31T04:40:12Z</time>
      </trkpt>
      <trkpt lat="49.08498" lon="7.13033">
        <ele>227.49</ele>
        <time>2013-03-31T04:40:39Z</time>
      </trkpt>
      <trkpt lat="49.08476" lon="7.13066">
        <ele>225.57</ele>
        <time>2013-03-31T04:41:04Z</time>
      </trkpt>
      <trkpt lat="49.08446" lon="7.13104">
        <ele>223.64</ele>
        <time>2013-03-31T04:41:30Z</time>
      </trkpt>
      <trkpt lat="49.0841" lon="7.13139">
        <ele>221.72</ele>
        <time>2013-03-31T04:41:58Z</time>
      </trkpt>
      <trkpt lat="49.08371" lon="7.13168">
        <ele>220.76</ele>
        <time>2013-03-31T04:42:27Z</time>
      </trkpt>
      <trkpt lat="49.08336" lon="7.13188">
        <ele>220.76</ele>
        <time>2013-03-31T04:42:54Z</time>
      </trkpt>
      <trkpt lat="49.08297" lon="7.13207">
        <ele>220.76</ele>
        <time>2013-03-31T04:43:24Z</time>
      </trkpt>
      <trkpt lat="49.08246" lon="7.13233">
        <ele>219.8</ele>
        <time>2013-03-31T04:43:59Z</time>
      </trkpt>
      <trkpt lat="49.08191" lon="7.13258">
        <ele>219.8</ele>
        <time>2013-03-31T04:44:37Z</time>
      </trkpt>
      <trkpt lat="49.08154" lon="7.13274">
        <ele>221.24</ele>
        <time>2013-03-31T04:45:05Z</time>
      </trkpt>
      <trkpt lat="49.08106" lon="7.13297">
        <ele>221.24</ele>
        <time>2013-03-31T04:45:39Z</time>
      </trkpt>
      <trkpt lat="49.08061" lon="7.13319">
        <ele>219.8</ele>
        <time>2013-03-31T04:46:11Z</time>
      </trkpt>
      <trkpt lat="49.08015" lon="7.13339">
        <ele>220.76</ele>
        <time>2013-03-31T04:46:42Z</time>
      </trkpt>
      <trkpt lat="49.0801" lon="7.13343">
        <ele>221.24</ele>
        <time>2013-03-31T04:46:47Z</time>
      </trkpt>
      <trkpt lat="49.08005" lon="7.13344">
        <ele>221.24</ele>
        <time>2013-03-31T04:46:55Z</time>
      </trkpt>
      <trkpt lat="49.07986" lon="7.13359">
        <ele>218.84</ele>
        <time>2013-03-31T04:47:14Z</time>
      </trkpt>
      <trkpt lat="49.07973" lon="7.13396">
        <ele>214.99</ele>
        <time>2013-03-31T04:47:36Z</time>
      </trkpt>
      <trkpt lat="49.07946" lon="7.13433">
        <ele>212.11</ele>
        <time>2013-03-31T04:48:02Z</time>
      </trkpt>
      <trkpt lat="49.07942" lon="7.13438">
        <ele>212.11</ele>
        <time>2013-03-31T04:48:06Z</time>
      </trkpt>
      <trkpt lat="49.07933" lon="7.13452">
        <ele>211.15</ele>
        <time>2013-03-31T04:48:19Z</time>
      </trkpt>
      <trkpt lat="49.07932" lon="7.13501">
        <ele>208.74</ele>
        <time>2013-03-31T04:48:43Z</time>
      </trkpt>
      <trkpt lat="49.07931" lon="7.13548">
        <ele>208.74</ele>
        <time>2013-03-31T04:49:07Z</time>
      </trkpt>
      <trkpt lat="49.07919" lon="7.1355">
        <ele>208.74</ele>
        <time>2013-03-31T04:49:13Z</time>
      </trkpt>
      <trkpt lat="49.07863" lon="7.13571">
        <ele>209.7</ele>
        <time>2013-03-31T04:49:41Z</time>
      </trkpt>
      <trkpt lat="49.07819" lon="7.13583">
        <ele>210.19</ele>
        <time>2013-03-31T04:50:14Z</time>
      </trkpt>
      <trkpt lat="49.07784" lon="7.13597">
        <ele>210.67</ele>
        <time>2013-03-31T04:50:43Z</time>
      </trkpt>
      <trkpt lat="49.07752" lon="7.13613">
        <ele>210.19</ele>
        <time>2013-03-31T04:51:09Z</time>
      </trkpt>
      <trkpt lat="49.07726" lon="7.13628">
        <ele>210.19</ele>
        <time>2013-03-31T04:51:34Z</time>
      </trkpt>
      <trkpt lat="49.07702" lon="7.13635">
        <ele>210.67</ele>
        <time>2013-03-31T04:51:50Z</time>
      </trkpt>
      <trkpt lat="49.07699" lon="7.13635">
        <ele>210.67</ele>
        <time>2013-03-31T04:51:52Z</time>
      </trkpt>
      <trkpt lat="49.0767" lon="7.13626">
        <ele>211.63</ele>
        <time>2013-03-31T04:52:15Z</time>
      </trkpt>
      <trkpt lat="49.0764" lon="7.13615">
        <ele>213.07</ele>
        <time>2013-03-31T04:52:37Z</time>
      </trkpt>
      <trkpt lat="49.07622" lon="7.13603">
        <ele>213.07</ele>
        <time>2013-03-31T04:52:57Z</time>
      </trkpt>
      <trkpt lat="49.07587" lon="7.13586">
        <ele>213.55</ele>
        <time>2013-03-31T04:53:22Z</time>
      </trkpt>
      <trkpt lat="49.07554" lon="7.13565">
        <ele>214.99</ele>
        <time>2013-03-31T04:53:49Z</time>
      </trkpt>
      <trkpt lat="49.07523" lon="7.13542">
        <ele>216.43</ele>
        <time>2013-03-31T04:54:15Z</time>
      </trkpt>
      <trkpt lat="49.07501" lon="7.13546">
        <ele>219.8</ele>
        <time>2013-03-31T04:54:39Z</time>
      </trkpt>
      <trkpt lat="49.07493" lon="7.13547">
        <ele>217.88</ele>
        <time>2013-03-31T04:55:02Z</time>
      </trkpt>
      <trkpt lat="49.07492" lon="7.13547">
        <ele>220.28</ele>
        <time>2013-03-31T04:55:03Z</time>
      </trkpt>
      <trkpt lat="49.07491" lon="7.13546">
        <ele>218.84</ele>
        <time>2013-03-31T04:55:05Z</time>
      </trkpt>
    </trkseg>
  </trk>
</gpx>